createdAt,value
2024-01-11T00:00:47.277Z,1.10
2024-01-11T00:04:52.758Z,1.10
2024-01-11T00:08:58.208Z,1.10
2024-01-11T00:13:03.892Z,1.10
2024-01-11T00:17:09.454Z,1.10
2024-01-11T00:21:14.874Z,1.10
2024-01-11T00:25:20.233Z,1.10
2024-01-11T00:29:25.648Z,1.00
2024-01-11T00:33:31.057Z,1.00
2024-01-11T00:37:38.564Z,1.00
2024-01-11T00:41:44.572Z,1.00
2024-01-11T00:45:50.370Z,1.00
2024-01-11T00:49:55.791Z,1.00
2024-01-11T00:54:01.383Z,0.90
2024-01-11T00:58:06.707Z,0.80
2024-01-11T01:02:12.185Z,0.80
2024-01-11T01:06:17.658Z,0.80
2024-01-11T01:10:23.044Z,0.80
2024-01-11T01:14:28.552Z,0.70
2024-01-11T01:18:34.007Z,0.70
2024-01-11T01:22:39.374Z,0.60
2024-01-11T01:26:45.048Z,0.60
2024-01-11T01:30:50.592Z,0.60
2024-01-11T01:34:56.017Z,0.60
2024-01-11T01:39:01.386Z,0.60
2024-01-11T01:43:14.154Z,0.60
2024-01-11T01:47:19.928Z,0.60
2024-01-11T01:51:28.230Z,0.50
2024-01-11T01:55:33.677Z,0.50
2024-01-11T01:59:39.996Z,0.50
2024-01-11T02:03:47.333Z,0.50
2024-01-11T02:07:52.959Z,0.40
2024-01-11T02:11:59.103Z,0.40
2024-01-11T02:16:05.497Z,0.40
2024-01-11T02:20:11.753Z,0.40
2024-01-11T02:24:17.136Z,0.40
2024-01-11T02:28:22.450Z,0.40
2024-01-11T02:32:27.919Z,0.40
2024-01-11T02:36:33.309Z,0.40
2024-01-11T02:40:38.698Z,0.30
2024-01-11T02:44:44.139Z,0.30
2024-01-11T02:48:49.626Z,0.30
2024-01-11T02:52:55.109Z,0.20
2024-01-11T02:57:00.547Z,0.20
2024-01-11T03:01:05.940Z,0.10
2024-01-11T03:05:11.907Z,0.20
2024-01-11T03:09:17.291Z,0.10
2024-01-11T03:13:22.584Z,0.10
2024-01-11T03:17:28.016Z,0.10
2024-01-11T03:21:33.397Z,0.10
2024-01-11T03:25:38.892Z,0.00
2024-01-11T03:29:44.429Z,0.00
2024-01-11T03:33:50.202Z,0.00
2024-01-11T03:37:56.117Z,0.00
2024-01-11T03:42:01.967Z,0.00
2024-01-11T03:46:07.573Z,0.00
2024-01-11T03:50:13.249Z,-0.10
2024-01-11T03:54:18.847Z,-0.10
2024-01-11T03:58:24.471Z,-0.10
2024-01-11T04:02:30.069Z,-0.10
2024-01-11T04:06:35.791Z,-0.10
2024-01-11T04:10:41.458Z,-0.10
2024-01-11T04:14:47.027Z,-0.10
2024-01-11T04:18:52.645Z,-0.10
2024-01-11T04:22:58.408Z,0.00
2024-01-11T04:27:04.947Z,0.00
2024-01-11T04:31:10.493Z,-0.10
2024-01-11T04:35:16.165Z,-0.10
2024-01-11T04:39:21.773Z,-0.20
2024-01-11T04:43:27.286Z,-0.20
2024-01-11T04:47:33.691Z,-0.20
2024-01-11T04:51:39.304Z,-0.20
2024-01-11T04:55:44.844Z,-0.20
2024-01-11T04:59:50.415Z,-0.20
2024-01-11T05:03:55.967Z,-0.20
2024-01-11T05:08:01.552Z,-0.20
2024-01-11T05:12:07.609Z,-0.20
2024-01-11T05:16:23.762Z,-0.20
2024-01-11T05:20:29.611Z,-0.10
2024-01-11T05:24:35.305Z,-0.10
2024-01-11T05:28:41.394Z,-0.10
2024-01-11T05:32:47.071Z,-0.10
2024-01-11T05:36:52.669Z,-0.10
2024-01-11T05:40:58.251Z,-0.10
2024-01-11T05:45:07.082Z,-0.10
2024-01-11T05:49:12.848Z,-0.10
2024-01-11T05:53:21.868Z,-0.10
2024-01-11T05:57:27.640Z,-0.10
2024-01-11T06:01:33.242Z,-0.10
2024-01-11T06:05:39.207Z,-0.10
2024-01-11T06:09:44.776Z,-0.10
2024-01-11T06:13:50.284Z,-0.10
2024-01-11T06:17:56.077Z,-0.10
2024-01-11T06:22:01.763Z,-0.10
2024-01-11T06:26:08.623Z,-0.10
2024-01-11T06:30:14.982Z,-0.10
2024-01-11T06:34:20.646Z,0.00
2024-01-11T06:38:26.455Z,0.00
2024-01-11T06:42:32.454Z,0.00
2024-01-11T06:46:40.219Z,0.10
2024-01-11T06:50:45.876Z,0.10
2024-01-11T06:54:51.577Z,0.20
2024-01-11T06:58:58.061Z,0.10
2024-01-11T07:03:04.432Z,0.10
2024-01-11T07:07:10.054Z,0.20
2024-01-11T07:11:15.615Z,0.20
2024-01-11T07:15:21.601Z,0.20
2024-01-11T07:19:31.662Z,0.30
2024-01-11T07:23:37.241Z,0.30
2024-01-11T07:27:42.866Z,0.30
2024-01-11T07:31:48.435Z,0.30
2024-01-11T07:35:53.997Z,0.30
2024-01-11T07:39:59.566Z,0.30
2024-01-11T07:44:05.210Z,0.30
2024-01-11T07:48:10.826Z,0.30
2024-01-11T07:52:18.517Z,0.30
2024-01-11T07:56:25.854Z,0.30
2024-01-11T08:00:31.426Z,0.30
2024-01-11T08:04:38.567Z,0.40
2024-01-11T08:08:45.253Z,0.40
2024-01-11T08:12:51.427Z,0.40
2024-01-11T08:16:57.299Z,0.40
2024-01-11T08:21:04.439Z,0.50
2024-01-11T08:25:10.854Z,0.50
2024-01-11T08:29:16.539Z,0.60
2024-01-11T08:33:22.407Z,0.60
2024-01-11T08:37:28.100Z,0.60
2024-01-11T08:41:34.722Z,0.60
2024-01-11T08:45:40.253Z,0.60
2024-01-11T08:49:45.972Z,0.60
2024-01-11T08:53:51.590Z,0.60
2024-01-11T08:57:57.965Z,0.70
2024-01-11T09:02:13.136Z,0.60
2024-01-11T09:06:21.487Z,0.60
2024-01-11T09:10:27.059Z,0.70
2024-01-11T09:14:32.576Z,0.70
2024-01-11T09:18:38.198Z,0.70
2024-01-11T09:22:43.798Z,0.80
2024-01-11T09:26:51.111Z,0.80
2024-01-11T09:31:01.474Z,0.90
2024-01-11T09:35:07.605Z,0.90
2024-01-11T09:39:14.775Z,0.90
2024-01-11T09:43:20.661Z,1.00
2024-01-11T09:47:27.565Z,1.00
2024-01-11T09:51:38.517Z,1.00
2024-01-11T09:55:44.373Z,1.10
2024-01-11T09:59:52.650Z,1.10
2024-01-11T10:03:58.587Z,1.20
2024-01-11T10:08:04.349Z,1.20
2024-01-11T10:12:10.927Z,1.30
2024-01-11T10:16:19.204Z,1.30
2024-01-11T10:20:25.678Z,1.30
2024-01-11T10:24:31.363Z,1.30
2024-01-11T10:28:40.153Z,1.40
2024-01-11T10:32:45.693Z,1.40
2024-01-11T10:36:52.034Z,1.40
2024-01-11T10:41:01.444Z,1.40
2024-01-11T10:45:20.133Z,1.50
2024-01-11T10:49:29.143Z,1.50
2024-01-11T10:53:47.226Z,1.60
2024-01-11T10:57:54.136Z,1.60
2024-01-11T11:02:07.780Z,1.70
2024-01-11T11:06:14.461Z,1.70
2024-01-11T11:10:21.769Z,1.70
2024-01-11T11:14:29.397Z,1.80
2024-01-11T11:18:37.122Z,1.80
2024-01-11T11:22:44.426Z,1.90
2024-01-11T11:26:49.996Z,1.90
2024-01-11T11:30:57.145Z,2.00
2024-01-11T11:35:02.731Z,2.00
2024-01-11T11:39:12.827Z,2.00
2024-01-11T11:43:19.300Z,2.10
2024-01-11T11:47:25.574Z,2.10
2024-01-11T11:51:31.230Z,2.10
2024-01-11T11:55:37.068Z,2.10
2024-01-11T11:59:44.220Z,2.20
2024-01-11T12:03:52.983Z,2.20
2024-01-11T12:07:58.654Z,2.20
2024-01-11T12:12:11.649Z,2.30
2024-01-11T12:16:21.787Z,2.30
2024-01-11T12:20:27.334Z,2.40
2024-01-11T12:24:34.381Z,2.40
2024-01-11T12:28:41.904Z,2.40
2024-01-11T12:32:48.534Z,2.50
2024-01-11T12:37:01.583Z,2.60
2024-01-11T12:41:08.523Z,2.60
2024-01-11T12:45:14.560Z,2.60
2024-01-11T12:49:20.394Z,2.60
2024-01-11T12:53:27.090Z,2.60
2024-01-11T12:57:34.674Z,2.70
2024-01-11T13:01:40.994Z,2.70
2024-01-11T13:05:46.996Z,2.80
2024-01-11T13:09:52.581Z,2.80
2024-01-11T13:14:00.155Z,2.80
2024-01-11T13:18:06.432Z,2.70
2024-01-11T13:22:12.348Z,2.70
2024-01-11T13:26:17.902Z,2.70
2024-01-11T13:30:23.501Z,2.70
2024-01-11T13:34:29.106Z,2.70
2024-01-11T13:38:34.755Z,2.70
2024-01-11T13:42:40.308Z,2.70
2024-01-11T13:46:45.849Z,2.70
2024-01-11T13:50:51.473Z,2.70
2024-01-11T13:54:57.098Z,2.70
2024-01-11T13:59:02.960Z,2.70
2024-01-11T14:03:09.946Z,2.70
2024-01-11T14:07:15.503Z,2.80
2024-01-11T14:11:20.898Z,2.80
2024-01-11T14:15:26.413Z,2.80
2024-01-11T14:19:32.472Z,2.80
2024-01-11T14:23:38.847Z,2.80
2024-01-11T14:27:45.555Z,2.80
2024-01-11T14:31:51.124Z,2.70
2024-01-11T14:35:56.535Z,2.70
2024-01-11T14:40:02.325Z,2.70
2024-01-11T14:44:08.525Z,2.70
2024-01-11T14:48:14.403Z,2.70
2024-01-11T14:52:20.077Z,2.70
2024-01-11T14:56:26.066Z,2.70
2024-01-11T15:00:31.503Z,2.60
2024-01-11T15:04:37.458Z,2.60
2024-01-11T15:08:42.925Z,2.60
2024-01-11T15:12:48.307Z,2.50
2024-01-11T15:16:53.714Z,2.50
2024-01-11T15:20:59.629Z,2.40
2024-01-11T15:25:05.592Z,2.40
2024-01-11T15:29:11.024Z,2.40
2024-01-11T15:33:16.633Z,2.40
2024-01-11T15:37:24.289Z,2.40
2024-01-11T15:41:29.775Z,2.30
2024-01-11T15:45:36.928Z,2.30
2024-01-11T15:49:43.107Z,2.20
2024-01-11T15:53:48.922Z,2.20
2024-01-11T15:57:55.791Z,2.10
2024-01-11T16:02:06.726Z,2.10
2024-01-11T16:06:13.502Z,2.00
2024-01-11T16:10:18.952Z,1.90
2024-01-11T16:14:24.506Z,1.90
2024-01-11T16:18:30.040Z,1.90
2024-01-11T16:22:35.840Z,1.80
2024-01-11T16:26:41.205Z,1.80
2024-01-11T16:30:47.517Z,1.80
2024-01-11T16:34:53.041Z,1.80
2024-01-11T16:38:58.497Z,1.70
2024-01-11T16:43:04.012Z,1.60
2024-01-11T16:47:09.880Z,1.50
2024-01-11T16:51:15.228Z,1.50
2024-01-11T16:55:20.582Z,1.50
2024-01-11T16:59:26.224Z,1.50
2024-01-11T17:03:32.143Z,1.40
2024-01-11T17:07:37.475Z,1.40
2024-01-11T17:11:43.740Z,1.40
2024-01-11T17:15:49.665Z,1.30
2024-01-11T17:19:55.073Z,1.30
2024-01-11T17:24:00.541Z,1.20
2024-01-11T17:28:06.322Z,1.20
2024-01-11T17:32:11.643Z,1.20
2024-01-11T17:36:17.331Z,1.10
2024-01-11T17:40:22.752Z,1.10
2024-01-11T17:44:30.900Z,1.10
2024-01-11T17:48:39.278Z,1.00
2024-01-11T17:52:46.525Z,1.00
2024-01-11T17:56:54.212Z,1.00
2024-01-11T18:01:00.538Z,1.00
2024-01-11T18:05:06.541Z,0.90
2024-01-11T18:09:12.384Z,0.90
2024-01-11T18:13:19.620Z,0.90
2024-01-11T18:17:25.121Z,0.90
2024-01-11T18:21:31.199Z,0.90
2024-01-11T18:25:36.732Z,0.90
2024-01-11T18:29:42.561Z,0.90
2024-01-11T18:33:51.128Z,0.90
2024-01-11T18:37:56.724Z,0.90
2024-01-11T18:42:03.216Z,0.90
2024-01-11T18:46:09.237Z,1.00
2024-01-11T18:50:14.832Z,1.00
2024-01-11T18:54:20.721Z,0.90
2024-01-11T18:58:30.662Z,0.90
2024-01-11T19:02:36.214Z,0.80
2024-01-11T19:06:41.901Z,0.80
2024-01-11T19:10:47.639Z,0.70
2024-01-11T19:14:53.294Z,0.70
2024-01-11T19:18:59.101Z,0.70
2024-01-11T19:23:04.837Z,0.60
2024-01-11T19:27:10.501Z,0.60
2024-01-11T19:31:18.157Z,0.50
2024-01-11T19:35:23.766Z,0.40
2024-01-11T19:39:29.264Z,0.40
2024-01-11T19:43:36.630Z,0.40
2024-01-11T19:47:43.002Z,0.40
2024-01-11T19:51:48.715Z,0.30
2024-01-11T19:55:54.253Z,0.20
2024-01-11T20:00:00.803Z,0.10
2024-01-11T20:04:07.013Z,0.20
2024-01-11T20:08:12.692Z,0.10
2024-01-11T20:12:18.315Z,0.10
2024-01-11T20:16:23.879Z,0.00
2024-01-11T20:20:29.528Z,0.00
2024-01-11T20:24:35.073Z,-0.10
2024-01-11T20:28:40.630Z,-0.10
2024-01-11T20:32:46.515Z,-0.10
2024-01-11T20:36:52.477Z,-0.20
2024-01-11T20:40:58.021Z,-0.20
2024-01-11T20:45:04.165Z,-0.30
2024-01-11T20:49:09.842Z,-0.30
2024-01-11T20:53:15.525Z,-0.30
2024-01-11T20:57:21.137Z,-0.40
2024-01-11T21:01:26.742Z,-0.40
2024-01-11T21:05:32.406Z,-0.50
2024-01-11T21:09:38.528Z,-0.50
2024-01-11T21:13:44.053Z,-0.50
2024-01-11T21:17:49.879Z,-0.50
2024-01-11T21:21:55.544Z,-0.60
2024-01-11T21:26:01.250Z,-0.60
2024-01-11T21:30:07.721Z,-0.70
2024-01-11T21:34:13.324Z,-0.70
2024-01-11T21:38:18.955Z,-0.70
2024-01-11T21:42:24.703Z,-0.70
2024-01-11T21:46:30.318Z,-0.80
2024-01-11T21:50:35.993Z,-0.90
2024-01-11T21:54:41.721Z,-0.90
2024-01-11T21:58:47.269Z,-1.00
2024-01-11T22:02:53.191Z,-1.00
2024-01-11T22:06:59.097Z,-1.00
2024-01-11T22:11:04.896Z,-1.10
2024-01-11T22:15:11.516Z,-1.10
2024-01-11T22:19:17.356Z,-1.10
2024-01-11T22:23:23.053Z,-1.20
2024-01-11T22:27:28.694Z,-1.20
2024-01-11T22:31:37.810Z,-1.20
2024-01-11T22:35:43.467Z,-1.30
2024-01-11T22:39:49.002Z,-1.30
2024-01-11T22:43:54.679Z,-1.40
2024-01-11T22:48:00.298Z,-1.40
2024-01-11T22:52:07.222Z,-1.40
2024-01-11T22:56:13.181Z,-1.50
2024-01-11T23:00:22.627Z,-1.50
2024-01-11T23:04:30.555Z,-1.50
2024-01-11T23:08:36.151Z,-1.60
2024-01-11T23:12:43.613Z,-1.60
2024-01-11T23:16:49.868Z,-1.70
2024-01-11T23:20:55.521Z,-1.70
2024-01-11T23:25:01.159Z,-1.70
2024-01-11T23:29:06.829Z,-1.70
2024-01-11T23:33:12.570Z,-1.80
2024-01-11T23:37:18.281Z,-1.80
2024-01-11T23:41:23.843Z,-1.80
2024-01-11T23:45:29.373Z,-1.90
2024-01-11T23:49:35.029Z,-1.90
2024-01-11T23:53:40.816Z,-1.90
2024-01-11T23:57:46.333Z,-2.00
